createdAt,value
2023-01-18T00:01:01.306Z,8.40
2023-01-18T00:03:43.927Z,5.90
2023-01-18T00:06:28.428Z,9.30
2023-01-18T00:09:11.029Z,6.65
2023-01-18T00:11:53.610Z,6.53
2023-01-18T00:14:36.172Z,5.57
2023-01-18T00:17:18.771Z,7.63
2023-01-18T00:20:01.388Z,6.95
2023-01-18T00:22:45.332Z,8.60
2023-01-18T00:25:27.903Z,9.15
2023-01-18T00:28:10.478Z,8.68
2023-01-18T00:30:53.106Z,7.57
2023-01-18T00:33:35.704Z,7.03
2023-01-18T00:36:18.872Z,8.30
2023-01-18T00:39:02.838Z,8.18
2023-01-18T00:41:59.319Z,8.82
2023-01-18T00:44:41.895Z,8.13
2023-01-18T00:47:24.856Z,8.55
2023-01-18T00:50:07.932Z,8.23
2023-01-18T00:52:50.776Z,7.97
2023-01-18T00:55:34.748Z,10.20
2023-01-18T00:58:17.350Z,10.00
2023-01-18T01:00:59.991Z,9.13
2023-01-18T01:04:00.098Z,10.98
2023-01-18T01:06:46.156Z,7.85
2023-01-18T01:09:30.548Z,9.80
2023-01-18T01:12:31.753Z,10.35
2023-01-18T01:15:32.004Z,11.27
2023-01-18T01:18:32.025Z,7.93
2023-01-18T01:21:32.194Z,8.10
2023-01-18T01:24:32.062Z,9.15
2023-01-18T01:27:17.380Z,11.63
2023-01-18T01:29:59.961Z,7.00
2023-01-18T01:32:42.678Z,8.27
2023-01-18T01:35:25.294Z,9.20
2023-01-18T01:38:07.875Z,10.15
2023-01-18T01:40:56.628Z,8.80
2023-01-18T01:43:42.369Z,7.15
2023-01-18T01:46:30.988Z,10.43
2023-01-18T01:49:15.093Z,7.80
2023-01-18T01:51:59.684Z,8.63
2023-01-18T01:54:44.491Z,9.50
2023-01-18T01:57:28.483Z,8.25
2023-01-18T02:00:13.719Z,9.88
2023-01-18T02:02:58.780Z,8.93
2023-01-18T02:05:43.660Z,9.38
2023-01-18T02:08:27.039Z,9.32
2023-01-18T02:11:09.604Z,9.98
2023-01-18T02:13:52.247Z,10.23
2023-01-18T02:16:40.986Z,8.88
2023-01-18T02:19:34.316Z,9.00
2023-01-18T02:22:26.325Z,9.93
2023-01-18T02:25:18.991Z,8.95
2023-01-18T02:28:13.701Z,8.73
2023-01-18T02:30:59.683Z,8.32
2023-01-18T02:33:45.561Z,7.57
2023-01-18T02:36:33.052Z,8.45
2023-01-18T02:39:31.442Z,8.90
2023-01-18T02:42:36.607Z,7.65
2023-01-18T02:45:40.980Z,9.20
2023-01-18T02:48:24.621Z,9.15
2023-01-18T02:51:07.335Z,12.43
2023-01-18T02:53:50.212Z,8.80
2023-01-18T02:56:35.889Z,9.07
2023-01-18T02:59:21.156Z,10.75
2023-01-18T03:02:07.833Z,9.02
2023-01-18T03:04:55.171Z,8.65
2023-01-18T03:07:41.508Z,10.98
2023-01-18T03:10:26.934Z,11.50
2023-01-18T03:13:13.930Z,12.82
2023-01-18T03:15:58.944Z,11.13
2023-01-18T03:19:00.348Z,8.98
2023-01-18T03:21:46.165Z,11.07
2023-01-18T03:24:29.419Z,10.50
2023-01-18T03:27:30.233Z,10.60
2023-01-18T03:30:30.867Z,9.30
2023-01-18T03:33:31.324Z,8.68
2023-01-18T03:36:18.031Z,9.68
2023-01-18T03:39:02.173Z,9.95
2023-01-18T03:41:46.610Z,9.43
2023-01-18T03:44:31.454Z,10.43
2023-01-18T03:47:14.126Z,10.10
2023-01-18T03:49:58.024Z,10.13
2023-01-18T03:52:42.927Z,11.60
2023-01-18T03:55:28.280Z,11.50
2023-01-18T03:58:11.988Z,11.00
2023-01-18T04:00:55.002Z,12.88
2023-01-18T04:03:38.107Z,9.98
2023-01-18T04:06:22.909Z,11.43
2023-01-18T04:09:08.298Z,11.52
2023-01-18T04:11:50.941Z,11.27
2023-01-18T04:14:33.959Z,12.63
2023-01-18T04:17:17.184Z,12.10
2023-01-18T04:19:59.809Z,11.43
2023-01-18T04:22:42.385Z,12.45
2023-01-18T04:25:26.902Z,13.23
2023-01-18T04:28:09.465Z,11.25
2023-01-18T04:30:52.096Z,11.05
2023-01-18T04:33:34.672Z,14.60
2023-01-18T04:36:17.203Z,10.98
2023-01-18T04:38:59.776Z,14.95
2023-01-18T04:41:44.689Z,12.80
2023-01-18T04:44:27.288Z,14.38
2023-01-18T04:47:09.840Z,13.07
2023-01-18T04:49:52.386Z,12.13
2023-01-18T04:52:34.939Z,12.10
2023-01-18T04:55:17.616Z,12.60
2023-01-18T04:58:01.531Z,12.77
2023-01-18T05:00:44.555Z,10.35
2023-01-18T05:03:27.167Z,12.45
2023-01-18T05:06:10.884Z,13.25
2023-01-18T05:08:53.489Z,10.65
2023-01-18T05:11:36.108Z,11.38
2023-01-18T05:14:20.000Z,11.38
2023-01-18T05:17:02.575Z,12.73
2023-01-18T05:19:46.686Z,12.75
2023-01-18T05:22:29.280Z,9.93
2023-01-18T05:25:11.872Z,11.77
2023-01-18T05:27:54.433Z,11.85
2023-01-18T05:30:41.150Z,14.88
2023-01-18T05:33:23.835Z,11.35
2023-01-18T05:36:06.725Z,11.75
2023-01-18T05:38:49.309Z,13.70
2023-01-18T05:41:31.924Z,10.45
2023-01-18T05:44:14.548Z,13.68
2023-01-18T05:46:58.680Z,11.13
2023-01-18T05:49:42.051Z,13.85
2023-01-18T05:52:24.732Z,12.88
2023-01-18T05:55:07.707Z,12.60
2023-01-18T05:57:50.328Z,11.02
2023-01-18T06:00:34.309Z,12.38
2023-01-18T06:03:18.366Z,12.40
2023-01-18T06:06:01.692Z,10.82
2023-01-18T06:08:44.307Z,13.02
2023-01-18T06:11:26.891Z,12.23
2023-01-18T06:14:09.604Z,10.13
2023-01-18T06:16:52.180Z,13.35
2023-01-18T06:19:36.100Z,15.40
2023-01-18T06:22:18.819Z,13.10
2023-01-18T06:25:01.427Z,12.45
2023-01-18T06:27:44.027Z,10.10
2023-01-18T06:30:26.609Z,12.20
2023-01-18T06:33:09.437Z,14.50
2023-01-18T06:35:53.534Z,14.35
2023-01-18T06:38:36.184Z,12.80
2023-01-18T06:41:18.742Z,13.45
2023-01-18T06:44:01.385Z,13.02
2023-01-18T06:46:44.331Z,13.63
2023-01-18T06:49:27.341Z,9.82
2023-01-18T06:52:11.253Z,14.25
2023-01-18T06:54:53.852Z,12.75
2023-01-18T06:57:36.591Z,12.30
2023-01-18T07:00:19.585Z,13.95
2023-01-18T07:03:02.189Z,11.60
2023-01-18T07:05:46.451Z,14.05
2023-01-18T07:08:31.877Z,16.55
2023-01-18T07:11:14.665Z,14.48
2023-01-18T07:13:57.241Z,17.33
2023-01-18T07:16:40.114Z,13.68
2023-01-18T07:19:22.786Z,15.63
2023-01-18T07:22:05.474Z,14.10
2023-01-18T07:24:49.409Z,16.88
2023-01-18T07:27:31.996Z,13.15
2023-01-18T07:30:14.895Z,13.00
2023-01-18T07:32:57.761Z,13.95
2023-01-18T07:35:40.570Z,19.10
2023-01-18T07:38:23.504Z,16.55
2023-01-18T07:41:09.233Z,15.48
2023-01-18T07:43:53.891Z,13.57
2023-01-18T07:46:36.714Z,17.45
2023-01-18T07:49:19.379Z,15.68
2023-01-18T07:52:02.031Z,17.67
2023-01-18T07:54:44.633Z,15.25
2023-01-18T07:57:28.971Z,15.38
2023-01-18T08:00:12.247Z,14.45
2023-01-18T08:02:59.265Z,15.10
2023-01-18T08:05:43.014Z,17.13
2023-01-18T08:08:27.562Z,15.70
2023-01-18T08:11:10.626Z,17.60
2023-01-18T08:13:54.581Z,14.85
2023-01-18T08:16:37.360Z,13.63
2023-01-18T08:19:19.971Z,15.30
2023-01-18T08:22:02.630Z,16.08
2023-01-18T08:37:20.647Z,17.58
2023-01-18T08:40:03.303Z,12.82
2023-01-18T08:42:46.728Z,18.27
2023-01-18T08:45:29.856Z,14.48
2023-01-18T08:48:12.451Z,13.95
2023-01-18T08:50:55.068Z,17.52
2023-01-18T08:53:39.037Z,15.40
2023-01-18T08:56:21.878Z,13.10
2023-01-18T08:59:04.535Z,14.77
2023-01-18T09:01:47.220Z,16.00
2023-01-18T09:04:30.095Z,16.33
2023-01-18T09:07:12.692Z,16.50
2023-01-18T09:09:56.638Z,17.23
2023-01-18T09:12:39.445Z,15.80
2023-01-18T09:15:22.180Z,17.50
2023-01-18T09:18:06.272Z,12.50
2023-01-18T09:20:48.898Z,15.57
2023-01-18T09:23:31.728Z,17.20
2023-01-18T09:26:17.023Z,16.60
2023-01-18T09:28:59.809Z,16.33
2023-01-18T09:31:42.477Z,18.10
2023-01-18T09:34:25.175Z,16.00
2023-01-18T09:37:07.811Z,16.02
2023-01-18T09:39:52.604Z,15.02
2023-01-18T09:42:38.992Z,17.10
2023-01-18T09:45:28.806Z,14.02
2023-01-18T09:48:16.434Z,13.75
2023-01-18T09:51:00.586Z,14.38
2023-01-18T09:53:51.385Z,16.27
2023-01-18T09:56:37.307Z,14.18
2023-01-18T09:59:27.979Z,15.60
2023-01-18T10:02:17.492Z,18.15
2023-01-18T10:05:02.467Z,15.48
2023-01-18T10:07:48.144Z,12.68
2023-01-18T10:10:33.959Z,15.25
2023-01-18T10:13:28.983Z,13.27
2023-01-18T10:16:16.769Z,15.45
2023-01-18T10:18:59.439Z,14.95
2023-01-18T10:21:48.230Z,14.00
2023-01-18T10:24:40.445Z,15.05
2023-01-18T10:27:35.840Z,16.33
2023-01-18T10:30:35.970Z,12.65
2023-01-18T10:33:23.084Z,15.13
2023-01-18T10:36:08.324Z,18.73
2023-01-18T10:38:52.844Z,13.60
2023-01-18T10:41:38.041Z,15.75
2023-01-18T10:44:21.411Z,14.18
2023-01-18T10:47:04.066Z,12.55
2023-01-18T10:49:50.295Z,12.93
2023-01-18T10:52:33.305Z,16.80
2023-01-18T10:55:17.305Z,15.05
2023-01-18T10:58:00.539Z,15.25
2023-01-18T11:00:43.460Z,13.27
2023-01-18T11:03:27.746Z,13.65
2023-01-18T11:06:11.753Z,15.52
2023-01-18T11:08:55.283Z,13.77
2023-01-18T11:11:55.504Z,17.08
2023-01-18T11:14:39.586Z,14.32
2023-01-18T11:17:22.407Z,15.52
2023-01-18T11:20:08.652Z,15.57
2023-01-18T11:22:56.492Z,15.07
2023-01-18T11:25:40.353Z,13.45
2023-01-18T11:28:24.629Z,15.68
2023-01-18T11:31:09.618Z,14.07
2023-01-18T11:33:53.703Z,14.23
2023-01-18T11:36:38.331Z,16.00
2023-01-18T11:39:26.540Z,13.00
2023-01-18T11:42:18.749Z,12.75
2023-01-18T11:45:11.647Z,14.95
2023-01-18T11:48:02.288Z,14.95
2023-01-18T11:50:47.691Z,15.85
2023-01-18T11:53:36.002Z,12.13
2023-01-18T11:56:25.554Z,13.23
2023-01-18T11:59:15.665Z,10.40
2023-01-18T12:02:12.644Z,11.88
2023-01-18T12:05:01.135Z,13.32
2023-01-18T12:07:49.070Z,11.18
2023-01-18T12:10:34.108Z,7.85
2023-01-18T12:13:24.173Z,8.77
2023-01-18T12:16:13.521Z,11.02
2023-01-18T12:19:13.081Z,10.90
2023-01-18T12:22:07.190Z,12.30
2023-01-18T12:24:56.302Z,10.77
2023-01-18T12:27:43.174Z,9.18
2023-01-18T12:30:31.609Z,12.95
2023-01-18T12:33:20.593Z,9.43
2023-01-18T12:36:12.652Z,9.48
2023-01-18T12:38:56.249Z,8.77
2023-01-18T12:41:43.307Z,10.13
2023-01-18T12:44:39.521Z,8.30
2023-01-18T12:47:32.787Z,9.68
2023-01-18T12:50:18.776Z,12.63
2023-01-18T12:53:02.553Z,9.18
2023-01-18T12:55:46.935Z,8.63
2023-01-18T12:58:29.550Z,8.48
2023-01-18T13:01:14.288Z,10.07
2023-01-18T13:04:01.557Z,8.82
2023-01-18T13:06:44.844Z,8.88
2023-01-18T13:09:33.300Z,8.80
2023-01-18T13:12:16.206Z,6.85
2023-01-18T13:15:03.692Z,12.00
2023-01-18T13:17:49.816Z,9.25
2023-01-18T13:20:40.021Z,9.13
2023-01-18T13:23:28.497Z,9.00
2023-01-18T13:26:18.381Z,8.82
2023-01-18T13:29:08.337Z,7.40
2023-01-18T13:31:51.158Z,10.80
2023-01-18T13:34:44.921Z,8.65
2023-01-18T13:37:42.651Z,11.40
2023-01-18T13:40:27.287Z,7.97
2023-01-18T13:43:24.775Z,8.65
2023-01-18T13:46:20.077Z,9.23
2023-01-18T13:49:36.133Z,8.02
2023-01-18T13:52:30.115Z,6.95
2023-01-18T13:55:26.526Z,10.15
2023-01-18T13:58:18.217Z,7.65
2023-01-18T14:01:03.401Z,6.90
2023-01-18T14:03:48.616Z,6.43
2023-01-18T14:06:32.627Z,8.57
2023-01-18T14:09:18.364Z,8.70
2023-01-18T14:12:02.425Z,7.13
2023-01-18T14:14:55.134Z,8.82
2023-01-18T14:17:49.893Z,8.00
2023-01-18T14:21:01.807Z,7.30
2023-01-18T14:24:06.101Z,7.95
2023-01-18T14:26:49.216Z,10.20
2023-01-18T14:29:36.103Z,9.02
2023-01-18T14:32:21.661Z,8.23
2023-01-18T14:35:05.420Z,9.48
2023-01-18T14:37:48.341Z,10.55
2023-01-18T14:40:31.988Z,10.50
2023-01-18T14:43:16.556Z,8.82
2023-01-18T14:46:01.714Z,7.00
2023-01-18T14:48:48.157Z,10.35
2023-01-18T14:51:31.999Z,7.47
2023-01-18T14:54:17.897Z,7.45
2023-01-18T14:57:04.912Z,8.02
2023-01-18T14:59:51.648Z,9.48
2023-01-18T15:02:39.161Z,7.80
2023-01-18T15:05:21.862Z,7.55
2023-01-18T15:08:05.077Z,10.18
2023-01-18T15:10:48.210Z,9.05
2023-01-18T15:13:30.877Z,8.15
2023-01-18T15:16:13.749Z,9.30
2023-01-18T15:18:58.597Z,9.00
2023-01-18T15:21:41.308Z,8.13
2023-01-18T15:24:24.799Z,7.32
2023-01-18T15:27:12.175Z,7.70
2023-01-18T15:29:55.618Z,8.77
2023-01-18T15:32:38.319Z,9.02
2023-01-18T15:35:23.830Z,8.45
2023-01-18T15:38:06.520Z,9.00
2023-01-18T15:40:54.819Z,10.45
2023-01-18T15:43:38.598Z,7.10
2023-01-18T15:46:21.218Z,8.07
2023-01-18T15:49:05.249Z,8.40
2023-01-18T15:51:56.957Z,7.18
2023-01-18T15:54:40.093Z,8.07
2023-01-18T15:57:23.583Z,10.15
2023-01-18T16:00:06.869Z,7.18
2023-01-18T16:02:49.904Z,7.90
2023-01-18T16:05:32.839Z,9.95
2023-01-18T16:08:22.723Z,9.85
2023-01-18T16:11:05.807Z,8.85
2023-01-18T16:13:56.919Z,7.25
2023-01-18T16:16:40.177Z,9.52
2023-01-18T16:19:25.671Z,8.63
2023-01-18T16:22:18.112Z,9.48
2023-01-18T16:25:03.353Z,9.05
2023-01-18T16:27:49.869Z,11.90
2023-01-18T16:30:34.941Z,9.80
2023-01-18T16:33:18.988Z,9.60
2023-01-18T16:36:02.999Z,11.07
2023-01-18T16:38:45.675Z,8.48
2023-01-18T16:41:29.633Z,11.70
2023-01-18T16:44:12.448Z,9.68
2023-01-18T16:46:55.015Z,10.45
2023-01-18T16:49:38.929Z,10.50
2023-01-18T16:52:21.546Z,12.32
2023-01-18T16:55:04.179Z,9.85
2023-01-18T16:57:48.902Z,12.05
2023-01-18T17:00:36.639Z,7.80
2023-01-18T17:03:19.280Z,10.30
2023-01-18T17:06:01.938Z,10.73
2023-01-18T17:08:44.655Z,9.65
2023-01-18T17:11:27.315Z,11.68
2023-01-18T17:14:11.379Z,10.48
2023-01-18T17:16:54.428Z,11.63
2023-01-18T17:19:37.751Z,10.77
2023-01-18T17:22:20.388Z,10.77
2023-01-18T17:25:03.054Z,14.57
2023-01-18T17:27:46.038Z,13.15
2023-01-18T17:30:30.150Z,12.70
2023-01-18T17:33:16.500Z,11.55
2023-01-18T17:35:59.152Z,12.43
2023-01-18T17:38:41.760Z,11.65
2023-01-18T17:41:27.635Z,11.63
2023-01-18T17:44:11.344Z,10.93
2023-01-18T17:46:55.361Z,11.63
2023-01-18T17:49:41.213Z,9.73
2023-01-18T17:52:24.016Z,13.10
2023-01-18T17:55:07.604Z,11.70
2023-01-18T17:57:50.238Z,12.65
2023-01-18T18:00:32.921Z,13.18
2023-01-18T18:03:17.347Z,11.88
2023-01-18T18:06:02.257Z,10.57
2023-01-18T18:08:45.124Z,12.38
2023-01-18T18:11:27.823Z,11.18
2023-01-18T18:14:10.515Z,11.43
2023-01-18T18:16:53.258Z,12.57
2023-01-18T18:19:37.347Z,16.70
2023-01-18T18:22:20.322Z,10.00
2023-01-18T18:25:03.025Z,11.65
2023-01-18T18:27:46.799Z,11.40
2023-01-18T18:30:29.748Z,11.23
2023-01-18T18:33:12.623Z,11.43
2023-01-18T18:35:57.025Z,13.75
2023-01-18T18:38:39.742Z,12.00
2023-01-18T18:41:22.378Z,15.00
2023-01-18T18:44:05.031Z,11.52
2023-01-18T18:46:48.408Z,13.05
2023-01-18T18:49:31.086Z,15.63
2023-01-18T18:52:15.105Z,12.77
2023-01-18T18:54:57.774Z,11.48
2023-01-18T18:57:40.435Z,11.70
2023-01-18T19:00:24.560Z,12.82
2023-01-18T19:03:08.143Z,12.48
2023-01-18T19:05:51.199Z,13.32
2023-01-18T19:08:35.182Z,13.32
2023-01-18T19:11:18.262Z,13.32
2023-01-18T19:14:01.109Z,12.52
2023-01-18T19:16:43.924Z,11.25
2023-01-18T19:19:27.186Z,12.38
2023-01-18T19:22:09.754Z,12.25
2023-01-18T19:24:53.805Z,13.10
2023-01-18T19:27:36.393Z,12.25
2023-01-18T19:30:20.019Z,10.20
2023-01-18T19:33:03.826Z,13.38
2023-01-18T19:35:47.335Z,11.25
2023-01-18T19:38:30.127Z,11.60
2023-01-18T19:41:14.320Z,14.30
2023-01-18T19:43:57.015Z,11.35
2023-01-18T19:46:39.873Z,16.88
2023-01-18T19:49:25.031Z,11.55
2023-01-18T19:52:07.752Z,14.13
2023-01-18T19:54:50.591Z,10.93
2023-01-18T19:57:34.563Z,12.18
2023-01-18T20:00:17.710Z,13.73
2023-01-18T20:03:00.929Z,12.82
2023-01-18T20:05:44.969Z,10.85
2023-01-18T20:08:27.651Z,11.65
2023-01-18T20:11:11.324Z,11.27
2023-01-18T20:13:55.947Z,10.85
2023-01-18T20:16:38.739Z,10.63
2023-01-18T20:19:21.450Z,13.35
2023-01-18T20:22:04.164Z,11.43
2023-01-18T20:24:47.058Z,10.32
2023-01-18T20:27:29.843Z,10.48
2023-01-18T20:30:14.363Z,10.70
2023-01-18T20:32:56.971Z,11.70
2023-01-18T20:35:39.913Z,12.05
2023-01-18T20:38:22.685Z,10.20
2023-01-18T20:41:06.189Z,13.20
2023-01-18T20:43:49.032Z,10.80
2023-01-18T20:46:33.062Z,9.85
2023-01-18T20:49:17.037Z,10.68
2023-01-18T20:52:00.879Z,10.55
2023-01-18T20:54:43.697Z,13.15
2023-01-18T20:57:30.290Z,11.07
2023-01-18T21:00:13.748Z,11.38
2023-01-18T21:02:58.120Z,12.95
2023-01-18T21:05:43.095Z,11.05
2023-01-18T21:08:25.696Z,11.23
2023-01-18T21:11:12.431Z,10.85
2023-01-18T21:13:55.447Z,12.57
2023-01-18T21:16:38.169Z,10.00
2023-01-18T21:19:22.282Z,11.15
2023-01-18T21:22:04.900Z,9.82
2023-01-18T21:24:48.842Z,9.02
2023-01-18T21:27:33.104Z,9.35
2023-01-18T21:30:16.673Z,11.68
2023-01-18T21:32:59.347Z,11.50
2023-01-18T21:35:43.387Z,12.55
2023-01-18T21:38:26.090Z,10.35
2023-01-18T21:41:26.016Z,13.57
2023-01-18T21:44:26.400Z,11.45
2023-01-18T21:47:09.003Z,11.40
2023-01-18T21:50:17.535Z,10.95
2023-01-18T21:53:19.882Z,12.35
2023-01-18T21:56:02.453Z,12.00
2023-01-18T21:58:58.121Z,10.90
2023-01-18T22:01:47.912Z,9.10
2023-01-18T22:04:48.198Z,11.98
2023-01-18T22:07:32.257Z,13.68
2023-01-18T22:10:16.679Z,10.32
2023-01-18T22:12:59.319Z,12.15
2023-01-18T22:15:41.902Z,11.82
2023-01-18T22:18:24.545Z,11.48
2023-01-18T22:21:07.290Z,10.00
2023-01-18T22:36:11.828Z,11.82
2023-01-18T22:38:54.902Z,11.90
2023-01-18T22:41:37.489Z,12.55
2023-01-18T22:44:20.063Z,9.45
2023-01-18T22:47:02.616Z,11.05
2023-01-18T22:49:45.240Z,11.18
2023-01-18T22:52:29.187Z,10.80
2023-01-18T22:55:11.995Z,9.50
2023-01-18T22:57:54.603Z,12.63
2023-01-18T23:00:37.175Z,9.40
2023-01-18T23:03:19.770Z,10.77
2023-01-18T23:06:02.371Z,11.02
2023-01-18T23:08:47.231Z,10.32
2023-01-18T23:11:30.601Z,10.25
2023-01-18T23:14:30.877Z,10.27
2023-01-18T23:17:31.114Z,11.35
2023-01-18T23:20:14.866Z,12.05
2023-01-18T23:22:57.490Z,9.27
2023-01-18T23:25:41.416Z,9.43
2023-01-18T23:28:27.625Z,12.02
2023-01-18T23:31:10.878Z,10.68
2023-01-18T23:33:53.495Z,9.50
2023-01-18T23:36:36.032Z,9.80
2023-01-18T23:39:36.193Z,10.38
2023-01-18T23:42:37.644Z,11.25
2023-01-18T23:45:37.971Z,11.55
2023-01-18T23:48:38.427Z,9.88
2023-01-18T23:51:38.686Z,13.68
2023-01-18T23:54:22.359Z,12.85
2023-01-18T23:57:05.582Z,9.90
2023-01-18T23:59:49.546Z,10.68
